createdAt,value
2022-08-12T00:02:04.643Z,89.69
2022-08-12T00:04:52.905Z,94.74
2022-08-12T00:07:39.962Z,100.00
2022-08-12T00:10:26.579Z,100.00
2022-08-12T00:13:12.887Z,100.00
2022-08-12T00:16:01.543Z,100.00
2022-08-12T00:18:47.060Z,100.00
2022-08-12T00:21:33.243Z,100.00
2022-08-12T00:24:24.753Z,100.00
2022-08-12T00:27:10.726Z,100.00
2022-08-12T00:29:56.323Z,100.00
2022-08-12T00:32:56.638Z,100.00
2022-08-12T00:35:43.122Z,100.00
2022-08-12T00:38:30.319Z,100.00
2022-08-12T00:41:17.560Z,100.00
2022-08-12T00:43:45.774Z,100.00
2022-08-12T00:46:31.480Z,100.00
2022-08-12T00:48:59.780Z,100.00
2022-08-12T00:51:47.960Z,100.00
2022-08-12T00:54:16.969Z,100.00
2022-08-12T00:56:47.869Z,100.00
2022-08-12T00:59:16.010Z,100.00
2022-08-12T01:02:02.369Z,100.00
2022-08-12T01:04:52.502Z,100.00
2022-08-12T01:07:43.679Z,100.00
2022-08-12T01:10:33.039Z,100.00
2022-08-12T01:13:07.359Z,100.00
2022-08-12T01:15:48.434Z,100.00
2022-08-12T01:18:17.699Z,100.00
2022-08-12T01:20:51.565Z,100.00
2022-08-12T01:23:39.277Z,100.00
2022-08-12T01:26:11.867Z,100.00
2022-08-12T01:28:40.387Z,100.00
2022-08-12T01:31:09.809Z,100.00
2022-08-12T01:33:45.371Z,100.00
2022-08-12T01:36:14.417Z,100.00
2022-08-12T01:38:44.706Z,100.00
2022-08-12T01:41:16.727Z,100.00
2022-08-12T01:43:45.795Z,100.00
2022-08-12T01:46:23.476Z,100.00
2022-08-12T01:49:03.047Z,100.00
2022-08-12T01:52:20.798Z,100.00
2022-08-12T01:54:30.347Z,100.00
2022-08-12T01:57:11.138Z,100.00
2022-08-12T01:59:47.557Z,100.00
2022-08-12T02:02:17.745Z,100.00
2022-08-12T02:05:20.887Z,100.00
2022-08-12T02:08:15.988Z,100.00
2022-08-12T02:11:10.670Z,100.00
2022-08-12T02:14:08.400Z,100.00
2022-08-12T02:17:09.922Z,100.00
2022-08-12T02:20:11.276Z,100.00
2022-08-12T02:22:41.651Z,100.00
2022-08-12T02:25:11.883Z,100.00
2022-08-12T02:27:41.633Z,100.00
2022-08-12T02:30:12.096Z,100.00
2022-08-12T02:32:44.474Z,100.00
2022-08-12T02:35:15.097Z,100.00
2022-08-12T02:37:44.792Z,100.00
2022-08-12T02:40:14.413Z,100.00
2022-08-12T02:42:59.671Z,100.00
2022-08-12T02:45:34.793Z,100.00
2022-08-12T02:48:08.232Z,100.00
2022-08-12T02:50:41.453Z,100.00
2022-08-12T02:53:10.522Z,100.00
2022-08-12T02:55:38.593Z,100.00
2022-08-12T02:58:12.565Z,100.00
2022-08-12T03:00:43.675Z,100.00
2022-08-12T03:03:15.433Z,100.00
2022-08-12T03:05:49.115Z,100.00
2022-08-12T03:08:25.736Z,100.00
2022-08-12T03:11:11.687Z,100.00
2022-08-12T03:13:43.042Z,100.00
2022-08-12T03:16:11.086Z,100.00
2022-08-12T03:18:45.705Z,100.00
2022-08-12T03:21:17.417Z,100.00
2022-08-12T03:24:09.358Z,100.00
2022-08-12T03:26:38.701Z,100.00
2022-08-12T03:29:07.669Z,100.00
2022-08-12T03:31:35.823Z,100.00
2022-08-12T03:34:08.398Z,100.00
2022-08-12T03:36:37.551Z,100.00
2022-08-12T03:39:35.330Z,100.00
2022-08-12T03:42:17.308Z,100.00
2022-08-12T03:45:11.952Z,100.00
2022-08-12T03:48:01.556Z,100.00
2022-08-12T03:50:49.193Z,100.00
2022-08-12T03:53:40.203Z,100.00
2022-08-12T03:56:25.915Z,100.00
2022-08-12T03:59:13.653Z,100.00
2022-08-12T04:01:41.941Z,100.00
2022-08-12T04:04:10.772Z,100.00
2022-08-12T04:06:46.042Z,100.00
2022-08-12T04:09:14.802Z,100.00
2022-08-12T04:12:03.551Z,100.00
2022-08-12T04:14:32.145Z,100.00
2022-08-12T04:17:00.222Z,100.00
2022-08-12T04:19:28.255Z,100.00
2022-08-12T04:22:01.734Z,100.00
2022-08-12T04:24:31.702Z,100.00
2022-08-12T04:26:59.675Z,100.00
2022-08-12T04:30:17.244Z,100.00
2022-08-12T04:32:17.003Z,100.00
2022-08-12T04:34:45.262Z,100.00
2022-08-12T04:37:16.761Z,100.00
2022-08-12T04:39:45.648Z,100.00
2022-08-12T04:42:13.756Z,100.00
2022-08-12T04:44:42.572Z,100.00
2022-08-12T04:47:12.892Z,100.00
2022-08-12T04:49:41.322Z,100.00
2022-08-12T04:52:09.412Z,100.00
2022-08-12T04:54:39.410Z,100.00
2022-08-12T04:57:09.806Z,100.00
2022-08-12T04:59:48.132Z,100.00
2022-08-12T05:02:20.950Z,100.00
2022-08-12T05:04:51.773Z,100.00
2022-08-12T05:07:20.167Z,100.00
2022-08-12T05:09:59.829Z,100.00
2022-08-12T05:12:34.487Z,100.00
2022-08-12T05:15:03.913Z,100.00
2022-08-12T05:17:47.912Z,100.00
2022-08-12T05:20:16.815Z,100.00
2022-08-12T05:22:46.075Z,100.00
2022-08-12T05:25:18.400Z,100.00
2022-08-12T05:27:58.566Z,100.00
2022-08-12T05:30:27.753Z,100.00
2022-08-12T05:33:00.087Z,100.00
2022-08-12T05:35:28.932Z,100.00
2022-08-12T05:38:10.772Z,100.00
2022-08-12T05:40:40.191Z,100.00
2022-08-12T05:43:08.245Z,100.00
2022-08-12T05:45:39.230Z,100.00
2022-08-12T05:48:09.632Z,100.00
2022-08-12T05:50:37.666Z,100.00
2022-08-12T05:53:07.159Z,100.00
2022-08-12T05:55:36.092Z,100.00
2022-08-12T05:58:07.952Z,100.00
2022-08-12T06:00:37.300Z,100.00
2022-08-12T06:03:06.987Z,100.00
2022-08-12T06:05:52.728Z,100.00
2022-08-12T06:08:23.753Z,100.00
2022-08-12T06:10:52.260Z,100.00
2022-08-12T06:13:28.274Z,100.00
2022-08-12T06:16:10.472Z,100.00
2022-08-12T06:18:40.212Z,100.00
2022-08-12T06:21:08.772Z,100.00
2022-08-12T06:23:41.963Z,100.00
2022-08-12T06:26:13.037Z,100.00
2022-08-12T06:28:44.076Z,100.00
2022-08-12T06:31:25.909Z,100.00
2022-08-12T06:34:52.766Z,99.89
2022-08-12T06:36:43.432Z,94.03
2022-08-12T06:39:14.239Z,90.02
2022-08-12T06:42:05.203Z,88.88
2022-08-12T06:44:51.123Z,84.86
2022-08-12T06:47:19.828Z,84.17
2022-08-12T06:49:48.755Z,80.36
2022-08-12T06:52:17.433Z,80.51
2022-08-12T06:54:45.980Z,85.07
2022-08-12T06:58:06.630Z,82.31
2022-08-12T07:00:04.303Z,78.95
2022-08-12T07:02:36.411Z,78.57
2022-08-12T07:05:05.563Z,80.33
2022-08-12T07:07:33.685Z,78.25
2022-08-12T07:10:07.794Z,78.72
2022-08-12T07:12:37.173Z,80.19
2022-08-12T07:15:08.111Z,80.36
2022-08-12T07:17:38.028Z,77.73
2022-08-12T07:20:29.872Z,76.57
2022-08-12T07:22:57.834Z,76.19
2022-08-12T07:25:37.902Z,75.34
2022-08-12T07:28:16.249Z,71.64
2022-08-12T07:30:48.636Z,72.79
2022-08-12T07:33:18.058Z,70.54
2022-08-12T07:35:48.566Z,66.16
2022-08-12T07:38:29.051Z,66.84
2022-08-12T07:41:01.853Z,66.40
2022-08-12T07:43:31.172Z,64.31
2022-08-12T07:46:02.226Z,64.64
2022-08-12T07:48:36.945Z,66.72
2022-08-12T07:51:05.654Z,63.59
2022-08-12T07:53:49.121Z,62.37
2022-08-12T07:56:23.313Z,60.38
2022-08-12T07:58:52.131Z,60.79
2022-08-12T08:01:23.040Z,61.16
2022-08-12T08:04:17.942Z,58.08
2022-08-12T08:06:47.729Z,56.52
2022-08-12T08:09:19.383Z,60.15
2022-08-12T08:12:05.004Z,58.38
2022-08-12T08:14:33.161Z,58.71
2022-08-12T08:20:01.815Z,58.62
2022-08-12T08:22:41.037Z,58.21
2022-08-12T08:25:20.176Z,60.42
2022-08-12T08:28:00.664Z,58.59
2022-08-12T08:30:29.872Z,58.87
2022-08-12T08:33:00.025Z,58.72
2022-08-12T08:35:47.147Z,59.91
2022-08-12T08:38:30.082Z,61.72
2022-08-12T08:42:17.445Z,61.48
2022-08-12T08:44:08.049Z,61.48
2022-08-12T08:46:38.177Z,60.08
2022-08-12T08:49:08.716Z,60.78
2022-08-12T08:51:37.531Z,60.08
2022-08-12T08:54:07.003Z,56.34
2022-08-12T08:56:36.442Z,55.48
2022-08-12T08:59:04.843Z,52.71
2022-08-12T09:01:37.341Z,54.27
2022-08-12T09:05:11.314Z,52.64
2022-08-12T09:06:59.771Z,53.00
2022-08-12T09:12:36.155Z,49.36
2022-08-12T09:15:16.884Z,50.05
2022-08-12T09:17:53.452Z,48.34
2022-08-12T09:20:27.505Z,45.93
2022-08-12T09:22:58.971Z,43.50
2022-08-12T09:25:33.501Z,43.92
2022-08-12T09:28:04.896Z,43.07
2022-08-12T09:30:47.673Z,41.74
2022-08-12T09:33:19.038Z,42.56
2022-08-12T09:36:05.994Z,44.50
2022-08-12T09:38:35.645Z,44.86
2022-08-12T09:42:34.137Z,46.27
2022-08-12T09:44:37.851Z,46.17
2022-08-12T09:47:00.327Z,45.67
2022-08-12T09:49:37.166Z,44.96
2022-08-12T09:52:15.838Z,45.76
2022-08-12T09:54:44.293Z,46.47
2022-08-12T09:58:46.740Z,46.96
2022-08-12T10:00:17.666Z,47.54
2022-08-12T10:03:00.994Z,45.83
2022-08-12T10:06:19.990Z,47.17
2022-08-12T10:08:30.589Z,43.30
2022-08-12T10:11:18.350Z,44.08
2022-08-12T10:13:50.308Z,44.30
2022-08-12T10:16:22.720Z,42.39
2022-08-12T10:18:53.825Z,43.80
2022-08-12T10:21:24.281Z,42.67
2022-08-12T10:24:08.537Z,42.42
2022-08-12T10:26:55.558Z,41.24
2022-08-12T10:30:37.439Z,41.65
2022-08-12T10:32:44.719Z,41.66
2022-08-12T10:35:16.826Z,41.75
2022-08-12T10:38:33.382Z,41.25
2022-08-12T10:40:56.553Z,39.32
2022-08-12T10:43:55.508Z,39.86
2022-08-12T10:46:30.481Z,41.20
2022-08-12T10:49:06.930Z,41.29
2022-08-12T10:52:03.752Z,41.18
2022-08-12T10:54:38.117Z,41.61
2022-08-12T10:57:07.846Z,41.74
2022-08-12T11:00:29.597Z,42.58
2022-08-12T11:04:25.126Z,41.63
2022-08-12T11:07:10.201Z,41.35
2022-08-12T11:08:36.143Z,40.03
2022-08-12T11:11:00.336Z,39.66
2022-08-12T11:13:46.271Z,39.20
2022-08-12T11:16:23.104Z,39.38
2022-08-12T11:18:54.975Z,38.59
2022-08-12T11:21:56.817Z,39.10
2022-08-12T11:24:30.753Z,39.61
2022-08-12T11:27:01.970Z,39.26
2022-08-12T11:30:05.975Z,39.49
2022-08-12T11:32:26.437Z,39.13
2022-08-12T11:34:55.298Z,38.18
2022-08-12T11:37:27.317Z,37.86
2022-08-12T11:42:35.373Z,37.48
2022-08-12T11:45:05.806Z,36.23
2022-08-12T11:47:40.390Z,36.65
2022-08-12T11:50:11.700Z,36.17
2022-08-12T11:53:02.313Z,35.54
2022-08-12T11:55:30.790Z,37.32
2022-08-12T11:58:08.648Z,38.37
2022-08-12T12:03:41.568Z,41.76
2022-08-12T12:06:16.336Z,41.76
2022-08-12T12:08:51.024Z,40.06
2022-08-12T12:11:20.891Z,42.60
2022-08-12T12:14:07.929Z,39.91
2022-08-12T12:16:39.973Z,39.63
2022-08-12T12:19:10.602Z,38.98
2022-08-12T12:21:47.272Z,40.03
2022-08-12T12:24:21.585Z,41.67
2022-08-12T12:27:00.078Z,39.54
2022-08-12T12:30:19.772Z,39.62
2022-08-12T12:32:29.048Z,41.29
2022-08-12T12:35:17.915Z,40.25
2022-08-12T12:38:05.432Z,38.04
2022-08-12T12:40:43.891Z,36.10
2022-08-12T12:43:13.934Z,34.25
2022-08-12T12:45:44.534Z,33.89
2022-08-12T12:48:24.011Z,32.57
2022-08-12T12:51:09.237Z,31.40
2022-08-12T12:54:06.541Z,33.39
2022-08-12T12:56:34.087Z,34.65
2022-08-12T12:59:06.315Z,34.97
2022-08-12T13:01:41.969Z,35.59
2022-08-12T13:04:15.550Z,35.84
2022-08-12T13:06:47.085Z,34.86
2022-08-12T13:09:15.703Z,32.67
2022-08-12T13:11:53.225Z,27.59
2022-08-12T13:14:29.532Z,23.27
2022-08-12T13:17:02.896Z,22.76
2022-08-12T13:19:46.897Z,22.44
2022-08-12T13:22:18.838Z,20.38
2022-08-12T13:24:54.759Z,22.61
2022-08-12T13:27:35.194Z,23.54
2022-08-12T13:30:06.839Z,20.55
2022-08-12T13:32:38.754Z,22.66
2022-08-12T13:35:20.431Z,20.28
2022-08-12T13:37:59.469Z,20.77
2022-08-12T13:40:32.323Z,20.44
2022-08-12T13:43:02.099Z,23.17
2022-08-12T13:45:31.600Z,24.83
2022-08-12T13:48:02.151Z,27.45
2022-08-12T13:50:36.598Z,28.43
2022-08-12T13:53:24.642Z,30.71
2022-08-12T13:56:01.970Z,32.94
2022-08-12T13:58:32.992Z,34.48
2022-08-12T14:01:05.754Z,34.80
2022-08-12T14:03:50.413Z,35.32
2022-08-12T14:06:25.926Z,35.13
2022-08-12T14:08:58.232Z,35.24
2022-08-12T14:11:28.053Z,35.86
2022-08-12T14:14:06.077Z,36.65
2022-08-12T14:16:48.758Z,31.47
2022-08-12T14:19:24.143Z,24.63
2022-08-12T14:21:59.165Z,20.63
2022-08-12T14:24:41.045Z,18.36
2022-08-12T14:27:11.210Z,21.54
2022-08-12T14:30:03.947Z,26.76
2022-08-12T14:32:35.660Z,30.04
2022-08-12T14:35:09.012Z,32.17
2022-08-12T14:37:57.363Z,34.75
2022-08-12T14:40:29.171Z,30.24
2022-08-12T14:42:58.245Z,25.99
2022-08-12T14:45:44.411Z,25.19
2022-08-12T14:48:16.665Z,27.41
2022-08-12T14:51:09.646Z,28.60
2022-08-12T14:59:57.357Z,32.23
2022-08-12T15:02:21.268Z,25.67
2022-08-12T15:04:59.135Z,21.10
2022-08-12T15:07:34.333Z,20.30
2022-08-12T15:10:31.171Z,21.79
2022-08-12T15:13:00.204Z,21.05
2022-08-12T15:15:31.454Z,18.05
2022-08-12T15:18:02.644Z,18.22
2022-08-12T15:20:37.265Z,23.55
2022-08-12T15:23:17.906Z,29.26
2022-08-12T15:26:02.473Z,31.71
2022-08-12T15:28:33.075Z,32.40
2022-08-12T15:31:02.423Z,32.61
2022-08-12T15:33:37.845Z,33.69
2022-08-12T15:36:19.226Z,34.05
2022-08-12T15:38:53.233Z,35.07
2022-08-12T15:41:25.633Z,35.51
2022-08-12T15:44:36.975Z,35.82
2022-08-12T15:46:44.990Z,36.96
2022-08-12T15:49:16.765Z,36.92
2022-08-12T15:51:58.479Z,37.54
2022-08-12T15:54:36.232Z,38.02
2022-08-12T15:57:16.801Z,38.50
2022-08-12T15:59:59.909Z,38.71
2022-08-12T16:02:50.223Z,37.92
2022-08-12T16:06:15.507Z,37.35
2022-08-12T16:08:15.251Z,37.62
2022-08-12T16:10:45.569Z,38.76
2022-08-12T16:13:25.092Z,37.79
2022-08-12T16:16:04.041Z,37.95
2022-08-12T16:18:40.559Z,37.62
2022-08-12T16:21:52.719Z,36.36
2022-08-12T16:24:02.102Z,37.33
2022-08-12T16:26:36.068Z,37.77
2022-08-12T16:29:09.286Z,38.17
2022-08-12T16:31:45.057Z,38.96
2022-08-12T16:34:25.859Z,40.04
2022-08-12T16:37:07.114Z,40.94
2022-08-12T16:39:59.859Z,41.85
2022-08-12T16:42:28.256Z,43.25
2022-08-12T16:44:59.570Z,44.32
2022-08-12T16:47:28.189Z,44.29
2022-08-12T16:49:57.958Z,44.93
2022-08-12T16:52:26.066Z,44.91
2022-08-12T16:54:55.312Z,45.06
2022-08-12T16:57:35.101Z,46.07
2022-08-12T17:00:17.143Z,45.81
2022-08-12T17:02:50.609Z,46.53
2022-08-12T17:05:31.389Z,47.29
2022-08-12T17:08:00.470Z,48.11
2022-08-12T17:10:36.209Z,50.14
2022-08-12T17:13:10.048Z,50.86
2022-08-12T17:15:57.057Z,51.34
2022-08-12T17:18:43.851Z,50.55
2022-08-12T17:21:20.085Z,53.38
2022-08-12T17:24:10.659Z,54.10
2022-08-12T17:26:45.432Z,55.81
2022-08-12T17:29:24.256Z,100.00
2022-08-12T17:32:10.271Z,100.00
2022-08-12T17:34:56.270Z,100.00
2022-08-12T17:37:31.733Z,100.00
2022-08-12T17:40:10.811Z,100.00
2022-08-12T17:42:47.618Z,100.00
2022-08-12T17:45:19.761Z,100.00
2022-08-12T17:48:02.253Z,100.00
2022-08-12T17:50:36.027Z,100.00
2022-08-12T17:53:04.741Z,97.82
2022-08-12T17:55:44.113Z,97.94
2022-08-12T17:58:16.639Z,100.00
2022-08-12T18:00:46.113Z,100.00
2022-08-12T18:04:07.006Z,100.00
2022-08-12T18:06:13.850Z,100.00
2022-08-12T18:08:54.280Z,100.00
2022-08-12T18:12:03.892Z,100.00
2022-08-12T18:14:30.206Z,98.82
2022-08-12T18:17:00.674Z,100.00
2022-08-12T18:20:04.314Z,96.31
2022-08-12T18:22:22.105Z,93.68
2022-08-12T18:25:02.594Z,100.00
2022-08-12T18:27:43.728Z,100.00
2022-08-12T18:30:20.982Z,100.00
2022-08-12T18:33:03.645Z,100.00
2022-08-12T18:35:52.934Z,100.00
2022-08-12T18:38:22.633Z,100.00
2022-08-12T18:41:10.952Z,100.00
2022-08-12T18:43:58.491Z,100.00
2022-08-12T18:46:33.267Z,100.00
2022-08-12T18:49:17.981Z,100.00
2022-08-12T18:51:55.431Z,100.00
2022-08-12T18:54:33.274Z,100.00
2022-08-12T18:57:03.907Z,100.00
2022-08-12T19:00:01.681Z,100.00
2022-08-12T19:02:23.208Z,100.00
2022-08-12T19:04:53.488Z,100.00
2022-08-12T19:07:29.757Z,100.00
2022-08-12T19:10:14.977Z,100.00
2022-08-12T19:13:01.148Z,100.00
2022-08-12T19:15:29.736Z,100.00
2022-08-12T19:18:02.350Z,100.00
2022-08-12T19:20:32.002Z,100.00
2022-08-12T19:23:08.189Z,100.00
2022-08-12T19:26:02.217Z,100.00
2022-08-12T19:28:34.755Z,100.00
2022-08-12T19:31:56.301Z,100.00
2022-08-12T19:34:47.113Z,100.00
2022-08-12T19:37:17.338Z,100.00
2022-08-12T19:40:09.896Z,100.00
2022-08-12T19:42:38.913Z,100.00
2022-08-12T19:45:12.709Z,100.00
2022-08-12T19:47:44.795Z,100.00
2022-08-12T19:50:19.735Z,100.00
2022-08-12T19:52:51.410Z,100.00
2022-08-12T19:55:25.365Z,100.00
2022-08-12T19:58:02.455Z,100.00
2022-08-12T20:00:34.590Z,100.00
2022-08-12T20:03:06.442Z,100.00
2022-08-12T20:06:05.995Z,100.00
2022-08-12T20:08:34.404Z,100.00
2022-08-12T20:12:09.730Z,100.00
2022-08-12T20:14:00.783Z,100.00
2022-08-12T20:19:52.788Z,100.00
2022-08-12T20:22:23.853Z,100.00
2022-08-12T20:24:55.230Z,100.00
2022-08-12T20:28:02.962Z,100.00
2022-08-12T20:30:37.309Z,100.00
2022-08-12T20:33:18.259Z,100.00
2022-08-12T20:36:06.396Z,100.00
2022-08-12T20:38:39.905Z,100.00
2022-08-12T20:41:16.654Z,100.00
2022-08-12T20:43:50.664Z,100.00
2022-08-12T20:46:20.986Z,100.00
2022-08-12T20:48:55.323Z,100.00
2022-08-12T20:51:27.621Z,100.00
2022-08-12T20:53:58.744Z,100.00
2022-08-12T20:56:33.471Z,100.00
2022-08-12T20:59:05.500Z,100.00
2022-08-12T21:01:46.492Z,100.00
2022-08-12T21:04:35.397Z,100.00
2022-08-12T21:07:09.344Z,100.00
2022-08-12T21:09:42.443Z,100.00
2022-08-12T21:12:31.055Z,100.00
2022-08-12T21:15:17.173Z,100.00
2022-08-12T21:18:09.079Z,100.00
2022-08-12T21:20:44.664Z,100.00
2022-08-12T21:23:13.916Z,100.00
2022-08-12T21:25:45.304Z,100.00
2022-08-12T21:28:14.627Z,100.00
2022-08-12T21:31:11.694Z,100.00
2022-08-12T21:34:06.182Z,100.00
2022-08-12T21:36:22.525Z,100.00
2022-08-12T21:38:53.985Z,100.00
2022-08-12T21:41:23.805Z,100.00
2022-08-12T21:43:52.634Z,100.00
2022-08-12T21:46:34.912Z,100.00
2022-08-12T21:49:05.446Z,100.00
2022-08-12T21:51:35.984Z,100.00
2022-08-12T21:54:21.831Z,100.00
2022-08-12T21:56:53.521Z,100.00
2022-08-12T21:59:22.975Z,100.00
2022-08-12T22:01:53.932Z,100.00
2022-08-12T22:04:49.953Z,100.00
2022-08-12T22:07:19.588Z,100.00
2022-08-12T22:09:54.238Z,100.00
2022-08-12T22:12:37.533Z,100.00
2022-08-12T22:15:07.642Z,100.00
2022-08-12T22:17:49.820Z,100.00
2022-08-12T22:20:23.885Z,100.00
2022-08-12T22:23:00.409Z,100.00
2022-08-12T22:25:30.465Z,100.00
2022-08-12T22:28:17.865Z,100.00
2022-08-12T22:31:10.837Z,100.00
2022-08-12T22:33:54.005Z,100.00
2022-08-12T22:36:29.189Z,100.00
2022-08-12T22:38:59.048Z,100.00
2022-08-12T22:41:45.786Z,100.00
2022-08-12T22:44:31.127Z,100.00
2022-08-12T22:47:45.700Z,100.00
2022-08-12T22:50:26.838Z,100.00
2022-08-12T22:53:15.000Z,100.00
2022-08-12T22:56:00.700Z,100.00
2022-08-12T22:58:33.868Z,100.00
2022-08-12T23:01:03.298Z,100.00
2022-08-12T23:03:49.336Z,100.00
2022-08-12T23:06:21.466Z,100.00
2022-08-12T23:08:49.955Z,100.00
2022-08-12T23:11:23.771Z,100.00
2022-08-12T23:13:57.060Z,100.00
2022-08-12T23:16:31.537Z,100.00
2022-08-12T23:19:10.666Z,100.00
2022-08-12T23:22:05.356Z,100.00
2022-08-12T23:24:41.219Z,100.00
2022-08-12T23:27:50.793Z,100.00
2022-08-12T23:30:24.709Z,100.00
2022-08-12T23:32:54.604Z,100.00
2022-08-12T23:35:46.120Z,100.00
2022-08-12T23:38:30.868Z,100.00
2022-08-12T23:41:01.207Z,100.00
2022-08-12T23:43:39.394Z,100.00
2022-08-12T23:46:10.388Z,100.00
2022-08-12T23:48:39.056Z,100.00
2022-08-12T23:51:21.522Z,100.00
2022-08-12T23:53:55.338Z,100.00
2022-08-12T23:56:24.295Z,100.00
2022-08-12T23:58:57.529Z,100.00
